sensor_id;sensor_type;location;lat;lon;timestamp;P1;durP1;ratioP1;P2;durP2;ratioP2
2998;SDS011;1509;51.964;7.628;2023-04-24T00:01:42;2.17;;;1.60;;
2998;SDS011;1509;51.964;7.628;2023-04-24T00:04:08;2.10;;;1.90;;
2998;SDS011;1509;51.964;7.628;2023-04-24T00:06:36;3.47;;;2.10;;
2998;SDS011;1509;51.964;7.628;2023-04-24T00:09:03;2.43;;;1.33;;
2998;SDS011;1509;51.964;7.628;2023-04-24T00:11:30;1.97;;;1.57;;
2998;SDS011;1509;51.964;7.628;2023-04-24T00:13:56;2.00;;;1.53;;
2998;SDS011;1509;51.964;7.628;2023-04-24T00:16:22;4.37;;;2.20;;
2998;SDS011;1509;51.964;7.628;2023-04-24T00:18:48;3.40;;;1.77;;
2998;SDS011;1509;51.964;7.628;2023-04-24T00:21:15;2.10;;;1.40;;
2998;SDS011;1509;51.964;7.628;2023-04-24T00:23:42;2.10;;;1.40;;
2998;SDS011;1509;51.964;7.628;2023-04-24T00:26:09;2.13;;;1.40;;
2998;SDS011;1509;51.964;7.628;2023-04-24T00:28:34;1.53;;;1.20;;
2998;SDS011;1509;51.964;7.628;2023-04-24T00:31:03;1.80;;;1.40;;
2998;SDS011;1509;51.964;7.628;2023-04-24T00:33:34;2.60;;;1.40;;
2998;SDS011;1509;51.964;7.628;2023-04-24T00:36:03;4.17;;;1.50;;
2998;SDS011;1509;51.964;7.628;2023-04-24T00:38:37;4.33;;;1.57;;
2998;SDS011;1509;51.964;7.628;2023-04-24T00:41:05;4.70;;;1.80;;
2998;SDS011;1509;51.964;7.628;2023-04-24T00:43:31;3.03;;;1.40;;
2998;SDS011;1509;51.964;7.628;2023-04-24T00:45:57;2.10;;;1.30;;
2998;SDS011;1509;51.964;7.628;2023-04-24T00:48:24;2.70;;;1.30;;
2998;SDS011;1509;51.964;7.628;2023-04-24T00:50:51;2.03;;;1.43;;
2998;SDS011;1509;51.964;7.628;2023-04-24T00:53:18;3.33;;;2.07;;
2998;SDS011;1509;51.964;7.628;2023-04-24T00:55:44;1.80;;;1.30;;
2998;SDS011;1509;51.964;7.628;2023-04-24T00:58:10;2.00;;;1.50;;
2998;SDS011;1509;51.964;7.628;2023-04-24T01:00:36;2.60;;;1.90;;
2998;SDS011;1509;51.964;7.628;2023-04-24T01:03:02;3.33;;;1.53;;
2998;SDS011;1509;51.964;7.628;2023-04-24T01:05:31;2.73;;;1.30;;
2998;SDS011;1509;51.964;7.628;2023-04-24T01:07:57;1.73;;;1.20;;
2998;SDS011;1509;51.964;7.628;2023-04-24T01:10:24;2.30;;;1.67;;
2998;SDS011;1509;51.964;7.628;2023-04-24T01:12:52;2.07;;;1.33;;
2998;SDS011;1509;51.964;7.628;2023-04-24T01:15:18;4.30;;;1.60;;
2998;SDS011;1509;51.964;7.628;2023-04-24T01:17:44;1.80;;;1.40;;
2998;SDS011;1509;51.964;7.628;2023-04-24T01:20:10;3.73;;;1.53;;
2998;SDS011;1509;51.964;7.628;2023-04-24T01:22:36;2.77;;;1.90;;
2998;SDS011;1509;51.964;7.628;2023-04-24T01:25:02;2.27;;;1.47;;
2998;SDS011;1509;51.964;7.628;2023-04-24T01:27:28;3.10;;;1.90;;
2998;SDS011;1509;51.964;7.628;2023-04-24T01:29:54;2.57;;;1.60;;
2998;SDS011;1509;51.964;7.628;2023-04-24T01:32:20;2.10;;;1.70;;
2998;SDS011;1509;51.964;7.628;2023-04-24T01:34:46;7.30;;;1.53;;
2998;SDS011;1509;51.964;7.628;2023-04-24T01:37:12;1.90;;;1.37;;
2998;SDS011;1509;51.964;7.628;2023-04-24T01:39:38;2.60;;;1.70;;
2998;SDS011;1509;51.964;7.628;2023-04-24T01:42:04;2.13;;;1.47;;
2998;SDS011;1509;51.964;7.628;2023-04-24T01:44:30;3.20;;;1.50;;
2998;SDS011;1509;51.964;7.628;2023-04-24T01:46:58;2.27;;;1.53;;
2998;SDS011;1509;51.964;7.628;2023-04-24T01:49:25;1.90;;;1.20;;
2998;SDS011;1509;51.964;7.628;2023-04-24T01:51:51;1.73;;;1.30;;
2998;SDS011;1509;51.964;7.628;2023-04-24T01:54:18;4.23;;;1.60;;
2998;SDS011;1509;51.964;7.628;2023-04-24T01:56:44;2.43;;;1.60;;
2998;SDS011;1509;51.964;7.628;2023-04-24T01:59:11;2.47;;;1.80;;
2998;SDS011;1509;51.964;7.628;2023-04-24T02:01:37;2.90;;;1.80;;
2998;SDS011;1509;51.964;7.628;2023-04-24T02:04:04;3.80;;;2.20;;
2998;SDS011;1509;51.964;7.628;2023-04-24T02:06:31;4.07;;;2.50;;
2998;SDS011;1509;51.964;7.628;2023-04-24T02:08:58;3.00;;;2.30;;
2998;SDS011;1509;51.964;7.628;2023-04-24T02:11:24;3.23;;;2.53;;
2998;SDS011;1509;51.964;7.628;2023-04-24T02:13:50;3.00;;;2.53;;
2998;SDS011;1509;51.964;7.628;2023-04-24T02:16:16;3.07;;;2.77;;
2998;SDS011;1509;51.964;7.628;2023-04-24T02:18:42;3.53;;;2.60;;
2998;SDS011;1509;51.964;7.628;2023-04-24T02:21:08;4.10;;;2.80;;
2998;SDS011;1509;51.964;7.628;2023-04-24T02:23:34;4.10;;;3.10;;
2998;SDS011;1509;51.964;7.628;2023-04-24T02:26:00;4.20;;;3.30;;
2998;SDS011;1509;51.964;7.628;2023-04-24T02:28:25;4.13;;;3.00;;
2998;SDS011;1509;51.964;7.628;2023-04-24T02:30:51;3.90;;;3.00;;
2998;SDS011;1509;51.964;7.628;2023-04-24T02:33:17;3.63;;;3.00;;
2998;SDS011;1509;51.964;7.628;2023-04-24T02:35:42;3.53;;;3.10;;
2998;SDS011;1509;51.964;7.628;2023-04-24T02:38:08;3.83;;;2.90;;
2998;SDS011;1509;51.964;7.628;2023-04-24T02:40:34;3.67;;;2.50;;
2998;SDS011;1509;51.964;7.628;2023-04-24T02:42:59;3.77;;;3.20;;
2998;SDS011;1509;51.964;7.628;2023-04-24T02:45:25;3.20;;;2.70;;
2998;SDS011;1509;51.964;7.628;2023-04-24T02:47:51;4.90;;;2.70;;
2998;SDS011;1509;51.964;7.628;2023-04-24T02:50:17;5.07;;;3.27;;
2998;SDS011;1509;51.964;7.628;2023-04-24T02:52:42;3.53;;;3.20;;
2998;SDS011;1509;51.964;7.628;2023-04-24T02:55:08;4.67;;;3.37;;
2998;SDS011;1509;51.964;7.628;2023-04-24T02:57:34;4.50;;;3.43;;
2998;SDS011;1509;51.964;7.628;2023-04-24T03:00:00;4.70;;;3.73;;
2998;SDS011;1509;51.964;7.628;2023-04-24T03:02:26;6.37;;;4.07;;
2998;SDS011;1509;51.964;7.628;2023-04-24T03:04:51;5.73;;;4.30;;
2998;SDS011;1509;51.964;7.628;2023-04-24T03:07:17;5.97;;;4.77;;
2998;SDS011;1509;51.964;7.628;2023-04-24T03:09:45;10.33;;;4.57;;
2998;SDS011;1509;51.964;7.628;2023-04-24T03:12:12;6.60;;;4.87;;
2998;SDS011;1509;51.964;7.628;2023-04-24T03:14:38;6.47;;;4.87;;
2998;SDS011;1509;51.964;7.628;2023-04-24T03:17:03;6.43;;;5.03;;
2998;SDS011;1509;51.964;7.628;2023-04-24T03:19:32;6.83;;;5.40;;
2998;SDS011;1509;51.964;7.628;2023-04-24T03:21:58;6.87;;;5.10;;
2998;SDS011;1509;51.964;7.628;2023-04-24T03:24:23;10.53;;;5.60;;
2998;SDS011;1509;51.964;7.628;2023-04-24T03:26:49;7.80;;;5.97;;
2998;SDS011;1509;51.964;7.628;2023-04-24T03:29:15;9.90;;;6.33;;
2998;SDS011;1509;51.964;7.628;2023-04-24T03:31:40;10.37;;;6.33;;
2998;SDS011;1509;51.964;7.628;2023-04-24T03:34:06;8.40;;;6.53;;
2998;SDS011;1509;51.964;7.628;2023-04-24T03:36:32;7.23;;;6.23;;
2998;SDS011;1509;51.964;7.628;2023-04-24T03:38:57;12.40;;;7.80;;
2998;SDS011;1509;51.964;7.628;2023-04-24T03:41:23;9.30;;;7.57;;
2998;SDS011;1509;51.964;7.628;2023-04-24T03:43:49;9.60;;;7.87;;
2998;SDS011;1509;51.964;7.628;2023-04-24T03:46:14;13.03;;;8.80;;
2998;SDS011;1509;51.964;7.628;2023-04-24T03:48:40;13.73;;;8.00;;
2998;SDS011;1509;51.964;7.628;2023-04-24T03:51:06;11.93;;;8.03;;
2998;SDS011;1509;51.964;7.628;2023-04-24T03:53:31;9.47;;;7.60;;
2998;SDS011;1509;51.964;7.628;2023-04-24T03:55:57;12.63;;;9.30;;
2998;SDS011;1509;51.964;7.628;2023-04-24T03:58:23;13.87;;;9.57;;
2998;SDS011;1509;51.964;7.628;2023-04-24T04:00:49;11.83;;;8.67;;
2998;SDS011;1509;51.964;7.628;2023-04-24T04:03:17;13.17;;;10.20;;
2998;SDS011;1509;51.964;7.628;2023-04-24T04:05:42;13.40;;;8.40;;
2998;SDS011;1509;51.964;7.628;2023-04-24T04:08:08;16.03;;;9.77;;
2998;SDS011;1509;51.964;7.628;2023-04-24T04:10:34;14.83;;;9.13;;
2998;SDS011;1509;51.964;7.628;2023-04-24T04:12:59;18.17;;;9.90;;
2998;SDS011;1509;51.964;7.628;2023-04-24T04:15:25;15.27;;;10.63;;
2998;SDS011;1509;51.964;7.628;2023-04-24T04:17:51;15.10;;;10.60;;
2998;SDS011;1509;51.964;7.628;2023-04-24T04:20:16;16.73;;;11.00;;
2998;SDS011;1509;51.964;7.628;2023-04-24T04:22:42;16.70;;;11.53;;
2998;SDS011;1509;51.964;7.628;2023-04-24T04:25:08;15.87;;;11.17;;
2998;SDS011;1509;51.964;7.628;2023-04-24T04:27:34;14.30;;;10.63;;
2998;SDS011;1509;51.964;7.628;2023-04-24T04:30:03;19.17;;;11.47;;
2998;SDS011;1509;51.964;7.628;2023-04-24T04:32:32;21.30;;;12.93;;
2998;SDS011;1509;51.964;7.628;2023-04-24T04:35:01;20.70;;;11.97;;
2998;SDS011;1509;51.964;7.628;2023-04-24T04:37:30;17.10;;;11.93;;
2998;SDS011;1509;51.964;7.628;2023-04-24T04:40:01;16.80;;;11.67;;
2998;SDS011;1509;51.964;7.628;2023-04-24T04:42:31;23.87;;;14.37;;
2998;SDS011;1509;51.964;7.628;2023-04-24T04:45:00;19.90;;;13.07;;
2998;SDS011;1509;51.964;7.628;2023-04-24T04:47:28;25.80;;;12.90;;
2998;SDS011;1509;51.964;7.628;2023-04-24T04:49:59;24.63;;;13.50;;
2998;SDS011;1509;51.964;7.628;2023-04-24T04:52:26;22.17;;;14.53;;
2998;SDS011;1509;51.964;7.628;2023-04-24T04:54:52;26.43;;;14.03;;
2998;SDS011;1509;51.964;7.628;2023-04-24T04:57:18;23.03;;;14.63;;
2998;SDS011;1509;51.964;7.628;2023-04-24T04:59:43;24.97;;;13.63;;
2998;SDS011;1509;51.964;7.628;2023-04-24T05:02:09;24.37;;;14.47;;
2998;SDS011;1509;51.964;7.628;2023-04-24T05:04:35;25.30;;;16.20;;
2998;SDS011;1509;51.964;7.628;2023-04-24T05:07:03;27.03;;;17.07;;
2998;SDS011;1509;51.964;7.628;2023-04-24T05:09:29;23.67;;;15.60;;
2998;SDS011;1509;51.964;7.628;2023-04-24T05:11:55;25.27;;;16.50;;
2998;SDS011;1509;51.964;7.628;2023-04-24T05:14:21;21.70;;;15.87;;
2998;SDS011;1509;51.964;7.628;2023-04-24T05:16:47;25.37;;;16.27;;
2998;SDS011;1509;51.964;7.628;2023-04-24T05:19:20;27.17;;;16.17;;
2998;SDS011;1509;51.964;7.628;2023-04-24T05:21:49;25.97;;;14.97;;
2998;SDS011;1509;51.964;7.628;2023-04-24T05:24:15;28.47;;;14.93;;
2998;SDS011;1509;51.964;7.628;2023-04-24T05:26:40;25.83;;;16.43;;
2998;SDS011;1509;51.964;7.628;2023-04-24T05:29:06;23.23;;;15.43;;
2998;SDS011;1509;51.964;7.628;2023-04-24T05:31:32;22.07;;;15.40;;
2998;SDS011;1509;51.964;7.628;2023-04-24T05:33:57;25.33;;;15.07;;
2998;SDS011;1509;51.964;7.628;2023-04-24T05:36:26;21.53;;;15.20;;
2998;SDS011;1509;51.964;7.628;2023-04-24T05:38:52;25.23;;;15.97;;
2998;SDS011;1509;51.964;7.628;2023-04-24T05:41:17;25.53;;;15.30;;
2998;SDS011;1509;51.964;7.628;2023-04-24T05:43:43;22.77;;;14.07;;
2998;SDS011;1509;51.964;7.628;2023-04-24T05:46:11;23.60;;;15.37;;
2998;SDS011;1509;51.964;7.628;2023-04-24T05:48:37;24.97;;;14.60;;
2998;SDS011;1509;51.964;7.628;2023-04-24T05:51:03;19.67;;;13.70;;
2998;SDS011;1509;51.964;7.628;2023-04-24T05:53:29;24.53;;;16.07;;
2998;SDS011;1509;51.964;7.628;2023-04-24T05:55:55;29.07;;;14.20;;
2998;SDS011;1509;51.964;7.628;2023-04-24T05:58:21;21.73;;;14.60;;
2998;SDS011;1509;51.964;7.628;2023-04-24T06:00:46;22.90;;;14.23;;
2998;SDS011;1509;51.964;7.628;2023-04-24T06:03:15;23.23;;;12.93;;
2998;SDS011;1509;51.964;7.628;2023-04-24T06:05:47;22.33;;;13.87;;
2998;SDS011;1509;51.964;7.628;2023-04-24T06:08:16;24.20;;;13.80;;
2998;SDS011;1509;51.964;7.628;2023-04-24T06:10:45;20.50;;;13.83;;
2998;SDS011;1509;51.964;7.628;2023-04-24T06:13:11;16.97;;;13.10;;
2998;SDS011;1509;51.964;7.628;2023-04-24T06:15:37;20.37;;;13.30;;
2998;SDS011;1509;51.964;7.628;2023-04-24T06:18:03;17.97;;;11.43;;
2998;SDS011;1509;51.964;7.628;2023-04-24T06:20:29;21.63;;;12.50;;
2998;SDS011;1509;51.964;7.628;2023-04-24T06:22:54;18.13;;;11.90;;
2998;SDS011;1509;51.964;7.628;2023-04-24T06:25:25;18.63;;;12.23;;
2998;SDS011;1509;51.964;7.628;2023-04-24T06:27:51;18.10;;;11.93;;
2998;SDS011;1509;51.964;7.628;2023-04-24T06:30:21;14.07;;;11.60;;
2998;SDS011;1509;51.964;7.628;2023-04-24T06:32:46;13.30;;;10.40;;
2998;SDS011;1509;51.964;7.628;2023-04-24T06:35:12;18.80;;;11.83;;
2998;SDS011;1509;51.964;7.628;2023-04-24T06:37:41;14.83;;;10.90;;
2998;SDS011;1509;51.964;7.628;2023-04-24T06:40:08;17.23;;;13.60;;
2998;SDS011;1509;51.964;7.628;2023-04-24T06:42:35;16.60;;;12.20;;
2998;SDS011;1509;51.964;7.628;2023-04-24T06:45:01;20.03;;;12.30;;
2998;SDS011;1509;51.964;7.628;2023-04-24T06:47:28;20.60;;;13.67;;
2998;SDS011;1509;51.964;7.628;2023-04-24T06:49:54;20.23;;;12.70;;
2998;SDS011;1509;51.964;7.628;2023-04-24T06:52:20;20.20;;;12.33;;
2998;SDS011;1509;51.964;7.628;2023-04-24T06:54:46;17.73;;;12.53;;
2998;SDS011;1509;51.964;7.628;2023-04-24T06:57:11;17.57;;;12.13;;
2998;SDS011;1509;51.964;7.628;2023-04-24T06:59:38;22.20;;;12.30;;
2998;SDS011;1509;51.964;7.628;2023-04-24T07:02:06;17.17;;;11.93;;
2998;SDS011;1509;51.964;7.628;2023-04-24T07:04:32;16.00;;;12.50;;
2998;SDS011;1509;51.964;7.628;2023-04-24T07:06:58;19.40;;;11.57;;
2998;SDS011;1509;51.964;7.628;2023-04-24T07:09:25;15.87;;;11.73;;
2998;SDS011;1509;51.964;7.628;2023-04-24T07:11:52;17.37;;;13.17;;
2998;SDS011;1509;51.964;7.628;2023-04-24T07:14:18;14.67;;;11.13;;
2998;SDS011;1509;51.964;7.628;2023-04-24T07:16:46;15.27;;;11.60;;
2998;SDS011;1509;51.964;7.628;2023-04-24T07:19:15;14.17;;;10.97;;
2998;SDS011;1509;51.964;7.628;2023-04-24T07:21:40;13.93;;;10.50;;
2998;SDS011;1509;51.964;7.628;2023-04-24T07:24:07;16.63;;;11.23;;
2998;SDS011;1509;51.964;7.628;2023-04-24T07:26:38;13.17;;;10.53;;
2998;SDS011;1509;51.964;7.628;2023-04-24T07:29:05;16.87;;;12.73;;
2998;SDS011;1509;51.964;7.628;2023-04-24T07:31:31;13.13;;;10.20;;
2998;SDS011;1509;51.964;7.628;2023-04-24T07:34:00;12.37;;;9.50;;
2998;SDS011;1509;51.964;7.628;2023-04-24T07:36:29;14.67;;;9.93;;
2998;SDS011;1509;51.964;7.628;2023-04-24T07:38:55;12.33;;;9.40;;
2998;SDS011;1509;51.964;7.628;2023-04-24T07:41:41;11.83;;;8.60;;
2998;SDS011;1509;51.964;7.628;2023-04-24T07:44:07;10.27;;;8.63;;
2998;SDS011;1509;51.964;7.628;2023-04-24T07:46:32;12.73;;;9.40;;
2998;SDS011;1509;51.964;7.628;2023-04-24T07:48:58;11.83;;;9.37;;
2998;SDS011;1509;51.964;7.628;2023-04-24T07:51:32;12.67;;;9.43;;
2998;SDS011;1509;51.964;7.628;2023-04-24T07:54:03;13.60;;;9.40;;
2998;SDS011;1509;51.964;7.628;2023-04-24T07:56:31;11.03;;;7.97;;
2998;SDS011;1509;51.964;7.628;2023-04-24T07:58:58;11.20;;;8.67;;
2998;SDS011;1509;51.964;7.628;2023-04-24T08:01:27;11.47;;;8.17;;
2998;SDS011;1509;51.964;7.628;2023-04-24T08:03:53;10.60;;;7.70;;
2998;SDS011;1509;51.964;7.628;2023-04-24T08:06:19;10.10;;;8.40;;
2998;SDS011;1509;51.964;7.628;2023-04-24T08:08:48;10.03;;;7.73;;
2998;SDS011;1509;51.964;7.628;2023-04-24T08:11:19;9.77;;;7.60;;
2998;SDS011;1509;51.964;7.628;2023-04-24T08:13:44;10.33;;;7.80;;
2998;SDS011;1509;51.964;7.628;2023-04-24T08:16:10;8.77;;;6.63;;
2998;SDS011;1509;51.964;7.628;2023-04-24T08:18:35;9.00;;;7.17;;
2998;SDS011;1509;51.964;7.628;2023-04-24T08:21:01;10.37;;;7.20;;
2998;SDS011;1509;51.964;7.628;2023-04-24T08:23:30;10.15;;;7.65;;
2998;SDS011;1509;51.964;7.628;2023-04-24T08:25:58;10.07;;;8.70;;
2998;SDS011;1509;51.964;7.628;2023-04-24T08:28:25;7.80;;;6.33;;
2998;SDS011;1509;51.964;7.628;2023-04-24T08:30:51;8.17;;;6.33;;
2998;SDS011;1509;51.964;7.628;2023-04-24T08:33:22;8.43;;;6.60;;
2998;SDS011;1509;51.964;7.628;2023-04-24T08:35:48;9.30;;;7.57;;
2998;SDS011;1509;51.964;7.628;2023-04-24T08:38:14;13.67;;;7.53;;
2998;SDS011;1509;51.964;7.628;2023-04-24T08:40:40;8.37;;;6.80;;
2998;SDS011;1509;51.964;7.628;2023-04-24T08:43:06;10.33;;;7.83;;
2998;SDS011;1509;51.964;7.628;2023-04-24T08:45:32;10.80;;;7.00;;
2998;SDS011;1509;51.964;7.628;2023-04-24T08:47:58;8.63;;;6.87;;
2998;SDS011;1509;51.964;7.628;2023-04-24T08:50:24;9.40;;;6.23;;
2998;SDS011;1509;51.964;7.628;2023-04-24T08:52:51;8.87;;;6.97;;
2998;SDS011;1509;51.964;7.628;2023-04-24T08:55:19;7.33;;;6.63;;
2998;SDS011;1509;51.964;7.628;2023-04-24T08:57:45;9.77;;;6.97;;
2998;SDS011;1509;51.964;7.628;2023-04-24T09:00:17;10.73;;;6.63;;
2998;SDS011;1509;51.964;7.628;2023-04-24T09:02:47;7.37;;;5.90;;
2998;SDS011;1509;51.964;7.628;2023-04-24T09:05:14;7.87;;;6.80;;
2998;SDS011;1509;51.964;7.628;2023-04-24T09:07:44;8.13;;;7.33;;
2998;SDS011;1509;51.964;7.628;2023-04-24T09:10:11;6.90;;;6.20;;
2998;SDS011;1509;51.964;7.628;2023-04-24T09:12:38;6.77;;;6.07;;
2998;SDS011;1509;51.964;7.628;2023-04-24T09:15:03;7.90;;;7.20;;
2998;SDS011;1509;51.964;7.628;2023-04-24T09:17:32;9.03;;;6.00;;
2998;SDS011;1509;51.964;7.628;2023-04-24T09:19:59;7.53;;;6.23;;
2998;SDS011;1509;51.964;7.628;2023-04-24T09:22:25;7.27;;;5.97;;
2998;SDS011;1509;51.964;7.628;2023-04-24T09:25:04;8.10;;;6.00;;
2998;SDS011;1509;51.964;7.628;2023-04-24T09:27:32;6.83;;;5.93;;
2998;SDS011;1509;51.964;7.628;2023-04-24T09:29:58;8.23;;;6.07;;
2998;SDS011;1509;51.964;7.628;2023-04-24T09:32:25;6.50;;;5.33;;
2998;SDS011;1509;51.964;7.628;2023-04-24T09:35:07;7.47;;;5.30;;
2998;SDS011;1509;51.964;7.628;2023-04-24T09:37:45;8.33;;;5.57;;
2998;SDS011;1509;51.964;7.628;2023-04-24T09:40:20;7.77;;;5.27;;
2998;SDS011;1509;51.964;7.628;2023-04-24T09:42:53;9.63;;;5.03;;
2998;SDS011;1509;51.964;7.628;2023-04-24T09:45:21;8.67;;;5.17;;
2998;SDS011;1509;51.964;7.628;2023-04-24T09:47:52;9.37;;;5.30;;
2998;SDS011;1509;51.964;7.628;2023-04-24T09:50:21;8.93;;;5.97;;
2998;SDS011;1509;51.964;7.628;2023-04-24T09:53:05;6.10;;;4.93;;
2998;SDS011;1509;51.964;7.628;2023-04-24T09:55:39;9.03;;;6.10;;
2998;SDS011;1509;51.964;7.628;2023-04-24T09:58:09;11.37;;;6.10;;
2998;SDS011;1509;51.964;7.628;2023-04-24T10:00:35;9.33;;;6.33;;
2998;SDS011;1509;51.964;7.628;2023-04-24T10:03:07;7.43;;;5.00;;
2998;SDS011;1509;51.964;7.628;2023-04-24T10:05:34;9.90;;;6.50;;
2998;SDS011;1509;51.964;7.628;2023-04-24T10:08:02;10.00;;;6.70;;
2998;SDS011;1509;51.964;7.628;2023-04-24T10:10:36;8.57;;;5.80;;
2998;SDS011;1509;51.964;7.628;2023-04-24T10:13:05;10.00;;;6.40;;
2998;SDS011;1509;51.964;7.628;2023-04-24T10:15:34;9.07;;;5.83;;
2998;SDS011;1509;51.964;7.628;2023-04-24T10:18:00;8.30;;;6.13;;
2998;SDS011;1509;51.964;7.628;2023-04-24T10:20:30;8.47;;;6.00;;
2998;SDS011;1509;51.964;7.628;2023-04-24T10:22:56;6.83;;;5.07;;
2998;SDS011;1509;51.964;7.628;2023-04-24T10:25:24;8.40;;;6.80;;
2998;SDS011;1509;51.964;7.628;2023-04-24T10:27:54;10.97;;;6.13;;
2998;SDS011;1509;51.964;7.628;2023-04-24T10:30:25;10.73;;;6.10;;
2998;SDS011;1509;51.964;7.628;2023-04-24T10:32:53;11.13;;;6.00;;
2998;SDS011;1509;51.964;7.628;2023-04-24T10:35:19;13.30;;;6.27;;
2998;SDS011;1509;51.964;7.628;2023-04-24T10:37:50;11.80;;;6.10;;
2998;SDS011;1509;51.964;7.628;2023-04-24T10:40:19;8.50;;;5.30;;
2998;SDS011;1509;51.964;7.628;2023-04-24T10:43:03;12.63;;;5.60;;
2998;SDS011;1509;51.964;7.628;2023-04-24T10:45:35;10.63;;;7.10;;
2998;SDS011;1509;51.964;7.628;2023-04-24T10:48:02;14.63;;;8.00;;
2998;SDS011;1509;51.964;7.628;2023-04-24T10:50:48;13.70;;;8.73;;
2998;SDS011;1509;51.964;7.628;2023-04-24T10:53:18;16.03;;;8.70;;
2998;SDS011;1509;51.964;7.628;2023-04-24T10:58:23;17.93;;;9.87;;
2998;SDS011;1509;51.964;7.628;2023-04-24T11:00:59;15.10;;;10.60;;
2998;SDS011;1509;51.964;7.628;2023-04-24T11:03:31;17.10;;;9.40;;
2998;SDS011;1509;51.964;7.628;2023-04-24T11:06:05;16.13;;;10.10;;
2998;SDS011;1509;51.964;7.628;2023-04-24T11:08:38;16.97;;;9.07;;
2998;SDS011;1509;51.964;7.628;2023-04-24T11:11:12;16.10;;;9.70;;
2998;SDS011;1509;51.964;7.628;2023-04-24T11:21:57;14.40;;;10.17;;
2998;SDS011;1509;51.964;7.628;2023-04-24T11:24:39;21.23;;;11.93;;
2998;SDS011;1509;51.964;7.628;2023-04-24T11:30:12;16.90;;;9.20;;
2998;SDS011;1509;51.964;7.628;2023-04-24T11:32:42;17.50;;;11.30;;
2998;SDS011;1509;51.964;7.628;2023-04-24T11:35:16;13.63;;;9.40;;
2998;SDS011;1509;51.964;7.628;2023-04-24T11:37:42;15.10;;;8.60;;
2998;SDS011;1509;51.964;7.628;2023-04-24T11:40:12;13.33;;;7.60;;
2998;SDS011;1509;51.964;7.628;2023-04-24T11:42:39;19.50;;;7.40;;
2998;SDS011;1509;51.964;7.628;2023-04-24T11:45:09;11.20;;;6.80;;
2998;SDS011;1509;51.964;7.628;2023-04-24T11:47:36;12.57;;;6.73;;
2998;SDS011;1509;51.964;7.628;2023-04-24T11:50:05;10.93;;;5.70;;
2998;SDS011;1509;51.964;7.628;2023-04-24T11:52:32;7.27;;;5.30;;
2998;SDS011;1509;51.964;7.628;2023-04-24T11:54:59;9.37;;;6.40;;
2998;SDS011;1509;51.964;7.628;2023-04-24T11:57:25;11.17;;;6.90;;
2998;SDS011;1509;51.964;7.628;2023-04-24T11:59:58;14.83;;;7.90;;
2998;SDS011;1509;51.964;7.628;2023-04-24T12:02:25;16.43;;;8.67;;
2998;SDS011;1509;51.964;7.628;2023-04-24T12:04:53;10.83;;;8.57;;
2998;SDS011;1509;51.964;7.628;2023-04-24T12:07:19;15.67;;;9.10;;
2998;SDS011;1509;51.964;7.628;2023-04-24T12:09:58;28.87;;;11.03;;
2998;SDS011;1509;51.964;7.628;2023-04-24T12:12:30;19.03;;;10.47;;
2998;SDS011;1509;51.964;7.628;2023-04-24T12:14:56;14.20;;;10.03;;
2998;SDS011;1509;51.964;7.628;2023-04-24T12:17:31;25.03;;;9.97;;
2998;SDS011;1509;51.964;7.628;2023-04-24T12:20:04;19.20;;;9.27;;
2998;SDS011;1509;51.964;7.628;2023-04-24T12:22:48;23.23;;;10.50;;
2998;SDS011;1509;51.964;7.628;2023-04-24T12:25:17;16.57;;;11.20;;
2998;SDS011;1509;51.964;7.628;2023-04-24T12:27:46;20.07;;;11.30;;
2998;SDS011;1509;51.964;7.628;2023-04-24T12:30:42;20.53;;;10.77;;
2998;SDS011;1509;51.964;7.628;2023-04-24T12:33:09;14.40;;;9.30;;
2998;SDS011;1509;51.964;7.628;2023-04-24T12:35:35;22.33;;;10.87;;
2998;SDS011;1509;51.964;7.628;2023-04-24T12:38:08;23.58;;;12.02;;
2998;SDS011;1509;51.964;7.628;2023-04-24T12:40:35;22.40;;;10.93;;
2998;SDS011;1509;51.964;7.628;2023-04-24T12:43:01;17.87;;;9.70;;
2998;SDS011;1509;51.964;7.628;2023-04-24T12:45:30;17.33;;;8.93;;
2998;SDS011;1509;51.964;7.628;2023-04-24T12:47:56;24.50;;;9.90;;
2998;SDS011;1509;51.964;7.628;2023-04-24T12:50:22;15.10;;;9.23;;
2998;SDS011;1509;51.964;7.628;2023-04-24T12:52:50;16.80;;;10.00;;
2998;SDS011;1509;51.964;7.628;2023-04-24T12:55:16;17.90;;;10.80;;
2998;SDS011;1509;51.964;7.628;2023-04-24T12:57:45;22.00;;;9.83;;
2998;SDS011;1509;51.964;7.628;2023-04-24T13:00:11;16.23;;;8.90;;
2998;SDS011;1509;51.964;7.628;2023-04-24T13:02:37;15.57;;;8.53;;
2998;SDS011;1509;51.964;7.628;2023-04-24T13:05:06;14.43;;;8.00;;
2998;SDS011;1509;51.964;7.628;2023-04-24T13:07:32;11.30;;;8.63;;
2998;SDS011;1509;51.964;7.628;2023-04-24T13:09:59;15.20;;;8.10;;
2998;SDS011;1509;51.964;7.628;2023-04-24T13:12:24;12.97;;;7.13;;
2998;SDS011;1509;51.964;7.628;2023-04-24T13:14:51;11.43;;;6.37;;
2998;SDS011;1509;51.964;7.628;2023-04-24T13:17:17;10.43;;;7.17;;
2998;SDS011;1509;51.964;7.628;2023-04-24T13:19:43;10.83;;;7.20;;
2998;SDS011;1509;51.964;7.628;2023-04-24T13:22:10;13.83;;;6.80;;
2998;SDS011;1509;51.964;7.628;2023-04-24T13:24:36;8.87;;;5.67;;
2998;SDS011;1509;51.964;7.628;2023-04-24T13:27:03;9.70;;;6.37;;
2998;SDS011;1509;51.964;7.628;2023-04-24T13:29:29;10.83;;;6.77;;
2998;SDS011;1509;51.964;7.628;2023-04-24T13:31:55;12.13;;;6.70;;
2998;SDS011;1509;51.964;7.628;2023-04-24T13:34:21;11.37;;;6.30;;
2998;SDS011;1509;51.964;7.628;2023-04-24T13:36:51;14.07;;;6.67;;
2998;SDS011;1509;51.964;7.628;2023-04-24T13:39:17;9.90;;;5.80;;
2998;SDS011;1509;51.964;7.628;2023-04-24T13:41:43;9.37;;;5.50;;
2998;SDS011;1509;51.964;7.628;2023-04-24T13:44:10;10.97;;;4.97;;
2998;SDS011;1509;51.964;7.628;2023-04-24T13:46:35;7.47;;;4.10;;
2998;SDS011;1509;51.964;7.628;2023-04-24T13:49:02;6.43;;;4.10;;
2998;SDS011;1509;51.964;7.628;2023-04-24T13:51:28;7.43;;;3.27;;
2998;SDS011;1509;51.964;7.628;2023-04-24T13:53:57;5.90;;;3.07;;
2998;SDS011;1509;51.964;7.628;2023-04-24T13:56:27;6.50;;;3.23;;
2998;SDS011;1509;51.964;7.628;2023-04-24T13:58:52;6.33;;;3.70;;
2998;SDS011;1509;51.964;7.628;2023-04-24T14:01:21;5.93;;;2.97;;
2998;SDS011;1509;51.964;7.628;2023-04-24T14:03:50;6.20;;;3.40;;
2998;SDS011;1509;51.964;7.628;2023-04-24T14:06:16;4.50;;;2.37;;
2998;SDS011;1509;51.964;7.628;2023-04-24T14:08:42;3.80;;;2.67;;
2998;SDS011;1509;51.964;7.628;2023-04-24T14:11:08;4.50;;;2.47;;
2998;SDS011;1509;51.964;7.628;2023-04-24T14:13:35;5.23;;;2.63;;
2998;SDS011;1509;51.964;7.628;2023-04-24T14:16:02;6.37;;;2.60;;
2998;SDS011;1509;51.964;7.628;2023-04-24T14:18:28;2.87;;;2.57;;
2998;SDS011;1509;51.964;7.628;2023-04-24T14:20:54;4.13;;;2.40;;
2998;SDS011;1509;51.964;7.628;2023-04-24T14:23:20;9.93;;;3.83;;
2998;SDS011;1509;51.964;7.628;2023-04-24T14:25:46;3.07;;;2.10;;
2998;SDS011;1509;51.964;7.628;2023-04-24T14:28:16;5.37;;;2.57;;
2998;SDS011;1509;51.964;7.628;2023-04-24T14:30:42;3.90;;;2.67;;
2998;SDS011;1509;51.964;7.628;2023-04-24T14:33:08;4.93;;;2.63;;
2998;SDS011;1509;51.964;7.628;2023-04-24T14:35:35;3.00;;;1.97;;
2998;SDS011;1509;51.964;7.628;2023-04-24T14:38:02;3.90;;;3.00;;
2998;SDS011;1509;51.964;7.628;2023-04-24T14:40:28;3.37;;;2.80;;
2998;SDS011;1509;51.964;7.628;2023-04-24T14:42:53;4.40;;;2.27;;
2998;SDS011;1509;51.964;7.628;2023-04-24T14:45:19;5.03;;;2.90;;
2998;SDS011;1509;51.964;7.628;2023-04-24T14:47:44;4.73;;;2.67;;
2998;SDS011;1509;51.964;7.628;2023-04-24T14:50:10;3.67;;;2.83;;
2998;SDS011;1509;51.964;7.628;2023-04-24T14:52:37;7.50;;;2.47;;
2998;SDS011;1509;51.964;7.628;2023-04-24T14:55:03;4.30;;;2.40;;
2998;SDS011;1509;51.964;7.628;2023-04-24T14:57:29;9.17;;;3.00;;
2998;SDS011;1509;51.964;7.628;2023-04-24T14:59:55;4.60;;;2.80;;
2998;SDS011;1509;51.964;7.628;2023-04-24T15:02:21;6.10;;;3.20;;
2998;SDS011;1509;51.964;7.628;2023-04-24T15:04:47;3.87;;;3.47;;
2998;SDS011;1509;51.964;7.628;2023-04-24T15:07:12;4.63;;;3.03;;
2998;SDS011;1509;51.964;7.628;2023-04-24T15:09:38;4.93;;;3.10;;
2998;SDS011;1509;51.964;7.628;2023-04-24T15:12:06;5.27;;;2.80;;
2998;SDS011;1509;51.964;7.628;2023-04-24T15:14:32;7.83;;;2.60;;
2998;SDS011;1509;51.964;7.628;2023-04-24T15:16:58;7.77;;;2.70;;
2998;SDS011;1509;51.964;7.628;2023-04-24T15:19:23;6.50;;;3.40;;
2998;SDS011;1509;51.964;7.628;2023-04-24T15:21:49;5.23;;;3.00;;